sensor_id;sensor_type;location;lat;lon;timestamp;temperature;humidity
51661;DHT22;37741;49.748;8.490;2023-02-28T00:00:08;1.30;63.50
51661;DHT22;37741;49.748;8.490;2023-02-28T00:06:01;1.30;63.70
51661;DHT22;37741;49.748;8.490;2023-02-28T00:08:27;1.30;63.70
51661;DHT22;37741;49.748;8.490;2023-02-28T00:10:52;1.30;63.80
51661;DHT22;37741;49.748;8.490;2023-02-28T00:13:18;1.30;63.80
51661;DHT22;37741;49.748;8.490;2023-02-28T00:15:43;1.30;63.90
51661;DHT22;37741;49.748;8.490;2023-02-28T00:18:10;1.20;63.90
51661;DHT22;37741;49.748;8.490;2023-02-28T00:20:37;1.30;64.00
51661;DHT22;37741;49.748;8.490;2023-02-28T00:23:03;1.20;64.00
51661;DHT22;37741;49.748;8.490;2023-02-28T00:25:28;1.20;64.10
51661;DHT22;37741;49.748;8.490;2023-02-28T00:27:54;1.20;64.20
51661;DHT22;37741;49.748;8.490;2023-02-28T00:30:22;1.20;64.20
51661;DHT22;37741;49.748;8.490;2023-02-28T00:32:48;1.20;64.20
51661;DHT22;37741;49.748;8.490;2023-02-28T00:35:14;1.20;64.40
51661;DHT22;37741;49.748;8.490;2023-02-28T00:37:40;1.10;64.30
51661;DHT22;37741;49.748;8.490;2023-02-28T00:40:07;1.10;64.40
51661;DHT22;37741;49.748;8.490;2023-02-28T00:42:36;1.10;64.50
51661;DHT22;37741;49.748;8.490;2023-02-28T00:45:03;1.10;64.50
51661;DHT22;37741;49.748;8.490;2023-02-28T00:47:32;1.10;64.50
51661;DHT22;37741;49.748;8.490;2023-02-28T00:49:57;1.10;64.60
51661;DHT22;37741;49.748;8.490;2023-02-28T00:52:23;1.10;64.70
51661;DHT22;37741;49.748;8.490;2023-02-28T00:54:49;1.00;64.70
51661;DHT22;37741;49.748;8.490;2023-02-28T00:57:15;1.00;64.80
51661;DHT22;37741;49.748;8.490;2023-02-28T00:59:40;1.00;64.80
51661;DHT22;37741;49.748;8.490;2023-02-28T01:02:06;1.00;64.90
51661;DHT22;37741;49.748;8.490;2023-02-28T01:04:31;1.00;64.90
51661;DHT22;37741;49.748;8.490;2023-02-28T01:06:57;1.00;65.00
51661;DHT22;37741;49.748;8.490;2023-02-28T01:09:22;1.00;65.00
51661;DHT22;37741;49.748;8.490;2023-02-28T01:11:48;1.00;65.10
51661;DHT22;37741;49.748;8.490;2023-02-28T01:14:16;0.90;65.10
51661;DHT22;37741;49.748;8.490;2023-02-28T01:16:42;0.90;65.20
51661;DHT22;37741;49.748;8.490;2023-02-28T01:19:07;0.90;65.20
51661;DHT22;37741;49.748;8.490;2023-02-28T01:21:33;0.90;65.30
51661;DHT22;37741;49.748;8.490;2023-02-28T01:24:01;0.90;65.30
51661;DHT22;37741;49.748;8.490;2023-02-28T01:26:27;0.90;65.40
51661;DHT22;37741;49.748;8.490;2023-02-28T01:28:53;0.90;65.50
51661;DHT22;37741;49.748;8.490;2023-02-28T01:31:20;0.80;65.50
51661;DHT22;37741;49.748;8.490;2023-02-28T01:33:46;0.80;65.60
51661;DHT22;37741;49.748;8.490;2023-02-28T01:36:15;0.80;65.50
51661;DHT22;37741;49.748;8.490;2023-02-28T01:38:41;0.80;65.60
51661;DHT22;37741;49.748;8.490;2023-02-28T01:41:08;0.80;65.60
51661;DHT22;37741;49.748;8.490;2023-02-28T01:46:09;0.80;65.70
51661;DHT22;37741;49.748;8.490;2023-02-28T01:48:42;0.70;65.70
51661;DHT22;37741;49.748;8.490;2023-02-28T01:51:15;0.70;65.80
51661;DHT22;37741;49.748;8.490;2023-02-28T01:53:48;0.70;65.90
51661;DHT22;37741;49.748;8.490;2023-02-28T01:56:17;0.70;65.90
51661;DHT22;37741;49.748;8.490;2023-02-28T01:58:47;0.70;66.00
51661;DHT22;37741;49.748;8.490;2023-02-28T02:01:12;0.70;66.00
51661;DHT22;37741;49.748;8.490;2023-02-28T02:03:50;0.60;66.00
51661;DHT22;37741;49.748;8.490;2023-02-28T02:06:29;0.70;66.20
51661;DHT22;37741;49.748;8.490;2023-02-28T02:08:56;0.60;66.10
51661;DHT22;37741;49.748;8.490;2023-02-28T02:11:23;0.60;66.20
51661;DHT22;37741;49.748;8.490;2023-02-28T02:31:12;0.50;66.50
51661;DHT22;37741;49.748;8.490;2023-02-28T02:37:02;0.50;66.70
51661;DHT22;37741;49.748;8.490;2023-02-28T02:39:40;0.50;66.70
51661;DHT22;37741;49.748;8.490;2023-02-28T02:42:25;0.50;66.70
51661;DHT22;37741;49.748;8.490;2023-02-28T02:44:59;0.40;66.80
51661;DHT22;37741;49.748;8.490;2023-02-28T02:47:29;0.40;66.80
51661;DHT22;37741;49.748;8.490;2023-02-28T02:49:58;0.40;66.80
51661;DHT22;37741;49.748;8.490;2023-02-28T02:52:34;0.40;66.90
51661;DHT22;37741;49.748;8.490;2023-02-28T02:55:03;0.40;67.00
51661;DHT22;37741;49.748;8.490;2023-02-28T02:57:38;0.40;67.00
51661;DHT22;37741;49.748;8.490;2023-02-28T03:00:05;0.30;67.00
51661;DHT22;37741;49.748;8.490;2023-02-28T03:02:36;0.30;67.10
51661;DHT22;37741;49.748;8.490;2023-02-28T03:05:08;0.30;67.10
51661;DHT22;37741;49.748;8.490;2023-02-28T03:07:34;0.30;67.10
51661;DHT22;37741;49.748;8.490;2023-02-28T03:10:00;0.30;67.20
51661;DHT22;37741;49.748;8.490;2023-02-28T03:12:49;0.30;67.30
51661;DHT22;37741;49.748;8.490;2023-02-28T03:15:27;0.30;67.30
51661;DHT22;37741;49.748;8.490;2023-02-28T03:18:04;0.30;67.30
51661;DHT22;37741;49.748;8.490;2023-02-28T03:23:23;0.20;67.40
51661;DHT22;37741;49.748;8.490;2023-02-28T03:26:01;0.20;67.50
51661;DHT22;37741;49.748;8.490;2023-02-28T03:31:38;0.20;67.60
51661;DHT22;37741;49.748;8.490;2023-02-28T03:34:19;0.20;67.60
51661;DHT22;37741;49.748;8.490;2023-02-28T03:36:53;0.20;67.60
51661;DHT22;37741;49.748;8.490;2023-02-28T03:41:52;0.20;67.70
51661;DHT22;37741;49.748;8.490;2023-02-28T03:44:32;0.10;67.70
51661;DHT22;37741;49.748;8.490;2023-02-28T03:47:10;0.10;67.70
51661;DHT22;37741;49.748;8.490;2023-02-28T03:49:42;0.10;67.80
51661;DHT22;37741;49.748;8.490;2023-02-28T03:52:11;0.10;67.80
51661;DHT22;37741;49.748;8.490;2023-02-28T03:54:42;0.10;67.90
51661;DHT22;37741;49.748;8.490;2023-02-28T03:57:15;0.10;67.90
51661;DHT22;37741;49.748;8.490;2023-02-28T03:59:47;0.10;68.00
51661;DHT22;37741;49.748;8.490;2023-02-28T04:02:14;0.10;68.00
51661;DHT22;37741;49.748;8.490;2023-02-28T04:04:40;0.10;68.00
51661;DHT22;37741;49.748;8.490;2023-02-28T04:07:11;0.00;68.00
51661;DHT22;37741;49.748;8.490;2023-02-28T04:09:37;0.00;68.10
51661;DHT22;37741;49.748;8.490;2023-02-28T04:12:09;0.00;68.20
51661;DHT22;37741;49.748;8.490;2023-02-28T04:14:44;0.00;68.20
51661;DHT22;37741;49.748;8.490;2023-02-28T04:17:09;0.00;68.30
51661;DHT22;37741;49.748;8.490;2023-02-28T04:19:35;0.00;68.30
51661;DHT22;37741;49.748;8.490;2023-02-28T04:22:00;0.00;68.30
51661;DHT22;37741;49.748;8.490;2023-02-28T04:24:27;0.00;68.40
51661;DHT22;37741;49.748;8.490;2023-02-28T04:26:55;0.00;68.60
51661;DHT22;37741;49.748;8.490;2023-02-28T04:29:24;0.00;68.60
51661;DHT22;37741;49.748;8.490;2023-02-28T04:31:50;-0.10;68.60
51661;DHT22;37741;49.748;8.490;2023-02-28T04:34:18;-0.10;68.70
51661;DHT22;37741;49.748;8.490;2023-02-28T04:36:44;-0.10;68.70
51661;DHT22;37741;49.748;8.490;2023-02-28T04:39:11;-0.10;68.80
51661;DHT22;37741;49.748;8.490;2023-02-28T04:41:37;-0.10;69.00
51661;DHT22;37741;49.748;8.490;2023-02-28T04:44:03;-0.10;69.00
51661;DHT22;37741;49.748;8.490;2023-02-28T04:46:29;-0.10;69.10
51661;DHT22;37741;49.748;8.490;2023-02-28T04:48:55;-0.10;69.10
51661;DHT22;37741;49.748;8.490;2023-02-28T04:51:22;-0.10;69.20
51661;DHT22;37741;49.748;8.490;2023-02-28T04:53:51;-0.10;69.40
51661;DHT22;37741;49.748;8.490;2023-02-28T04:56:18;-0.20;69.40
51661;DHT22;37741;49.748;8.490;2023-02-28T04:58:44;-0.20;69.40
51661;DHT22;37741;49.748;8.490;2023-02-28T05:01:36;-0.20;69.50
51661;DHT22;37741;49.748;8.490;2023-02-28T05:04:03;-0.20;69.50
51661;DHT22;37741;49.748;8.490;2023-02-28T05:06:31;-0.20;69.60
51661;DHT22;37741;49.748;8.490;2023-02-28T05:08:57;-0.20;69.60
51661;DHT22;37741;49.748;8.490;2023-02-28T05:11:26;-0.20;69.70
51661;DHT22;37741;49.748;8.490;2023-02-28T05:13:52;-0.20;69.80
51661;DHT22;37741;49.748;8.490;2023-02-28T05:16:19;-0.30;69.80
51661;DHT22;37741;49.748;8.490;2023-02-28T05:18:45;-0.20;70.00
51661;DHT22;37741;49.748;8.490;2023-02-28T05:21:24;-0.20;70.00
51661;DHT22;37741;49.748;8.490;2023-02-28T05:23:51;-0.30;70.00
51661;DHT22;37741;49.748;8.490;2023-02-28T05:26:17;-0.30;70.00
51661;DHT22;37741;49.748;8.490;2023-02-28T05:28:43;-0.30;70.20
51661;DHT22;37741;49.748;8.490;2023-02-28T05:31:12;-0.30;70.40
51661;DHT22;37741;49.748;8.490;2023-02-28T05:33:37;-0.30;70.30
51661;DHT22;37741;49.748;8.490;2023-02-28T05:36:03;-0.30;70.30
51661;DHT22;37741;49.748;8.490;2023-02-28T05:38:29;-0.30;70.30
51661;DHT22;37741;49.748;8.490;2023-02-28T05:40:54;-0.30;70.90
51661;DHT22;37741;49.748;8.490;2023-02-28T05:43:20;-0.40;70.30
51661;DHT22;37741;49.748;8.490;2023-02-28T05:45:45;-0.40;70.20
51661;DHT22;37741;49.748;8.490;2023-02-28T05:48:11;-0.40;70.30
51661;DHT22;37741;49.748;8.490;2023-02-28T05:50:37;-0.40;70.30
51661;DHT22;37741;49.748;8.490;2023-02-28T05:53:06;-0.40;70.30
51661;DHT22;37741;49.748;8.490;2023-02-28T05:55:31;-0.40;70.40
51661;DHT22;37741;49.748;8.490;2023-02-28T05:57:57;-0.40;70.40
51661;DHT22;37741;49.748;8.490;2023-02-28T06:00:23;-0.40;70.40
51661;DHT22;37741;49.748;8.490;2023-02-28T06:02:48;-0.40;70.40
51661;DHT22;37741;49.748;8.490;2023-02-28T06:05:15;-0.40;70.40
51661;DHT22;37741;49.748;8.490;2023-02-28T06:07:42;-0.40;70.50
51661;DHT22;37741;49.748;8.490;2023-02-28T06:10:09;-0.40;70.40
51661;DHT22;37741;49.748;8.490;2023-02-28T06:12:35;-0.40;70.40
51661;DHT22;37741;49.748;8.490;2023-02-28T06:15:00;-0.40;70.50
51661;DHT22;37741;49.748;8.490;2023-02-28T06:17:26;-0.50;70.40
51661;DHT22;37741;49.748;8.490;2023-02-28T06:19:52;-0.50;70.40
51661;DHT22;37741;49.748;8.490;2023-02-28T06:22:20;-0.50;70.50
51661;DHT22;37741;49.748;8.490;2023-02-28T06:24:50;-0.50;70.40
51661;DHT22;37741;49.748;8.490;2023-02-28T06:27:16;-0.50;70.50
51661;DHT22;37741;49.748;8.490;2023-02-28T06:29:44;-0.50;70.50
51661;DHT22;37741;49.748;8.490;2023-02-28T06:32:14;-0.50;70.50
51661;DHT22;37741;49.748;8.490;2023-02-28T06:34:40;-0.50;70.60
51661;DHT22;37741;49.748;8.490;2023-02-28T06:37:13;-0.50;70.60
51661;DHT22;37741;49.748;8.490;2023-02-28T06:39:39;-0.50;70.70
51661;DHT22;37741;49.748;8.490;2023-02-28T06:42:05;-0.50;70.70
51661;DHT22;37741;49.748;8.490;2023-02-28T06:44:30;-0.50;70.70
51661;DHT22;37741;49.748;8.490;2023-02-28T06:47:02;-0.50;70.80
51661;DHT22;37741;49.748;8.490;2023-02-28T06:49:33;-0.50;70.80
51661;DHT22;37741;49.748;8.490;2023-02-28T06:51:59;-0.50;70.90
51661;DHT22;37741;49.748;8.490;2023-02-28T06:54:25;-0.50;70.80
51661;DHT22;37741;49.748;8.490;2023-02-28T06:56:53;-0.50;71.00
51661;DHT22;37741;49.748;8.490;2023-02-28T06:59:19;-0.50;71.10
51661;DHT22;37741;49.748;8.490;2023-02-28T07:01:45;-0.50;71.10
51661;DHT22;37741;49.748;8.490;2023-02-28T07:04:18;-0.50;71.00
51661;DHT22;37741;49.748;8.490;2023-02-28T07:06:43;-0.50;71.00
51661;DHT22;37741;49.748;8.490;2023-02-28T07:09:12;-0.50;71.10
51661;DHT22;37741;49.748;8.490;2023-02-28T07:11:39;-0.50;71.10
51661;DHT22;37741;49.748;8.490;2023-02-28T07:14:08;-0.50;71.10
51661;DHT22;37741;49.748;8.490;2023-02-28T07:16:36;-0.50;71.10
51661;DHT22;37741;49.748;8.490;2023-02-28T07:19:02;-0.50;71.10
51661;DHT22;37741;49.748;8.490;2023-02-28T07:21:27;-0.50;71.10
51661;DHT22;37741;49.748;8.490;2023-02-28T07:23:53;-0.50;71.10
51661;DHT22;37741;49.748;8.490;2023-02-28T07:26:19;-0.50;71.10
51661;DHT22;37741;49.748;8.490;2023-02-28T07:28:47;-0.50;71.10
51661;DHT22;37741;49.748;8.490;2023-02-28T07:31:14;-0.50;71.10
51661;DHT22;37741;49.748;8.490;2023-02-28T07:33:40;-0.50;71.10
51661;DHT22;37741;49.748;8.490;2023-02-28T07:36:08;-0.50;71.10
51661;DHT22;37741;49.748;8.490;2023-02-28T07:38:37;-0.50;71.10
51661;DHT22;37741;49.748;8.490;2023-02-28T07:41:03;-0.50;71.10
51661;DHT22;37741;49.748;8.490;2023-02-28T07:43:34;-0.50;71.10
51661;DHT22;37741;49.748;8.490;2023-02-28T07:46:08;-0.50;71.00
51661;DHT22;37741;49.748;8.490;2023-02-28T07:48:34;-0.50;71.10
51661;DHT22;37741;49.748;8.490;2023-02-28T07:51:00;-0.50;71.10
51661;DHT22;37741;49.748;8.490;2023-02-28T07:53:27;-0.50;71.00
51661;DHT22;37741;49.748;8.490;2023-02-28T07:56:00;-0.40;71.10
51661;DHT22;37741;49.748;8.490;2023-02-28T07:58:27;-0.40;71.10
51661;DHT22;37741;49.748;8.490;2023-02-28T08:00:54;-0.40;71.10
51661;DHT22;37741;49.748;8.490;2023-02-28T08:03:20;-0.40;71.00
51661;DHT22;37741;49.748;8.490;2023-02-28T08:05:48;-0.40;71.00
51661;DHT22;37741;49.748;8.490;2023-02-28T08:08:15;-0.40;71.60
51661;DHT22;37741;49.748;8.490;2023-02-28T08:10:41;-0.40;71.00
51661;DHT22;37741;49.748;8.490;2023-02-28T08:13:07;-0.40;70.90
51661;DHT22;37741;49.748;8.490;2023-02-28T08:15:32;-0.40;70.80
51661;DHT22;37741;49.748;8.490;2023-02-28T08:17:58;-0.30;70.80
51661;DHT22;37741;49.748;8.490;2023-02-28T08:20:24;-0.40;70.70
51661;DHT22;37741;49.748;8.490;2023-02-28T08:22:50;-0.30;70.70
51661;DHT22;37741;49.748;8.490;2023-02-28T08:25:16;-0.30;70.70
51661;DHT22;37741;49.748;8.490;2023-02-28T08:27:41;-0.30;70.60
51661;DHT22;37741;49.748;8.490;2023-02-28T08:30:10;-0.30;70.60
51661;DHT22;37741;49.748;8.490;2023-02-28T08:32:36;-0.30;70.50
51661;DHT22;37741;49.748;8.490;2023-02-28T08:35:01;-0.30;70.40
51661;DHT22;37741;49.748;8.490;2023-02-28T08:37:28;-0.20;70.50
51661;DHT22;37741;49.748;8.490;2023-02-28T08:39:54;-0.20;70.50
51661;DHT22;37741;49.748;8.490;2023-02-28T08:42:19;-0.20;70.40
51661;DHT22;37741;49.748;8.490;2023-02-28T08:44:45;-0.20;70.40
51661;DHT22;37741;49.748;8.490;2023-02-28T08:47:11;-0.20;70.40
51661;DHT22;37741;49.748;8.490;2023-02-28T08:49:37;-0.20;70.30
51661;DHT22;37741;49.748;8.490;2023-02-28T08:52:03;-0.20;70.40
51661;DHT22;37741;49.748;8.490;2023-02-28T08:54:31;-0.20;70.30
51661;DHT22;37741;49.748;8.490;2023-02-28T08:56:58;-0.10;70.30
51661;DHT22;37741;49.748;8.490;2023-02-28T08:59:24;-0.10;70.30
51661;DHT22;37741;49.748;8.490;2023-02-28T09:01:50;-0.10;70.30
51661;DHT22;37741;49.748;8.490;2023-02-28T09:04:15;-0.10;70.20
51661;DHT22;37741;49.748;8.490;2023-02-28T09:06:41;-0.10;70.20
51661;DHT22;37741;49.748;8.490;2023-02-28T09:09:07;0.00;70.30
51661;DHT22;37741;49.748;8.490;2023-02-28T09:11:34;0.00;70.30
51661;DHT22;37741;49.748;8.490;2023-02-28T09:14:00;0.00;70.50
51661;DHT22;37741;49.748;8.490;2023-02-28T09:16:29;0.00;70.70
51661;DHT22;37741;49.748;8.490;2023-02-28T09:18:55;0.10;71.80
51661;DHT22;37741;49.748;8.490;2023-02-28T09:21:20;0.10;71.00
51661;DHT22;37741;49.748;8.490;2023-02-28T09:23:48;0.10;70.60
51661;DHT22;37741;49.748;8.490;2023-02-28T09:26:17;0.20;70.50
51661;DHT22;37741;49.748;8.490;2023-02-28T09:28:43;0.20;70.30
51661;DHT22;37741;49.748;8.490;2023-02-28T09:31:18;0.20;70.20
51661;DHT22;37741;49.748;8.490;2023-02-28T09:33:50;0.20;70.10
51661;DHT22;37741;49.748;8.490;2023-02-28T09:36:16;0.20;70.10
51661;DHT22;37741;49.748;8.490;2023-02-28T09:38:42;0.20;70.00
51661;DHT22;37741;49.748;8.490;2023-02-28T09:43:46;0.30;70.00
51661;DHT22;37741;49.748;8.490;2023-02-28T09:46:38;0.20;69.90
51661;DHT22;37741;49.748;8.490;2023-02-28T09:49:18;0.20;69.80
51661;DHT22;37741;49.748;8.490;2023-02-28T09:52:12;0.20;69.80
51661;DHT22;37741;49.748;8.490;2023-02-28T09:54:38;0.30;69.80
51661;DHT22;37741;49.748;8.490;2023-02-28T09:57:19;0.30;69.80
51661;DHT22;37741;49.748;8.490;2023-02-28T10:00:13;0.30;69.70
51661;DHT22;37741;49.748;8.490;2023-02-28T10:05:25;0.30;69.50
51661;DHT22;37741;49.748;8.490;2023-02-28T10:08:12;0.30;69.50
51661;DHT22;37741;49.748;8.490;2023-02-28T10:10:42;0.30;69.50
51661;DHT22;37741;49.748;8.490;2023-02-28T10:13:35;0.40;69.50
51661;DHT22;37741;49.748;8.490;2023-02-28T10:16:24;0.40;69.40
51661;DHT22;37741;49.748;8.490;2023-02-28T10:18:57;0.40;69.30
51661;DHT22;37741;49.748;8.490;2023-02-28T10:21:29;0.40;69.10
51661;DHT22;37741;49.748;8.490;2023-02-28T10:24:03;0.50;69.00
51661;DHT22;37741;49.748;8.490;2023-02-28T10:26:32;0.50;69.50
51661;DHT22;37741;49.748;8.490;2023-02-28T10:28:58;0.50;68.70
51661;DHT22;37741;49.748;8.490;2023-02-28T10:31:24;0.60;68.70
51661;DHT22;37741;49.748;8.490;2023-02-28T10:33:49;0.60;68.60
51661;DHT22;37741;49.748;8.490;2023-02-28T10:36:18;0.60;68.60
51661;DHT22;37741;49.748;8.490;2023-02-28T10:38:45;0.60;68.40
51661;DHT22;37741;49.748;8.490;2023-02-28T10:41:18;0.70;68.30
51661;DHT22;37741;49.748;8.490;2023-02-28T10:43:52;0.70;68.00
51661;DHT22;37741;49.748;8.490;2023-02-28T10:46:19;0.70;67.90
51661;DHT22;37741;49.748;8.490;2023-02-28T10:49:15;0.80;67.70
51661;DHT22;37741;49.748;8.490;2023-02-28T10:51:43;0.80;67.60
51661;DHT22;37741;49.748;8.490;2023-02-28T10:54:16;0.80;67.40
51661;DHT22;37741;49.748;8.490;2023-02-28T10:56:43;0.90;67.40
51661;DHT22;37741;49.748;8.490;2023-02-28T11:01:42;0.90;67.30
51661;DHT22;37741;49.748;8.490;2023-02-28T11:06:44;1.00;67.30
51661;DHT22;37741;49.748;8.490;2023-02-28T11:09:21;1.00;67.00
51661;DHT22;37741;49.748;8.490;2023-02-28T11:11:49;1.10;67.20
51661;DHT22;37741;49.748;8.490;2023-02-28T11:14:22;1.10;67.10
51661;DHT22;37741;49.748;8.490;2023-02-28T11:16:50;1.10;66.80
51661;DHT22;37741;49.748;8.490;2023-02-28T11:19:27;1.10;66.70
51661;DHT22;37741;49.748;8.490;2023-02-28T11:22:00;1.20;66.60
51661;DHT22;37741;49.748;8.490;2023-02-28T11:24:37;1.20;66.50
51661;DHT22;37741;49.748;8.490;2023-02-28T11:27:10;1.20;66.30
51661;DHT22;37741;49.748;8.490;2023-02-28T11:29:47;1.30;66.40
51661;DHT22;37741;49.748;8.490;2023-02-28T11:32:19;1.30;66.50
51661;DHT22;37741;49.748;8.490;2023-02-28T11:34:46;1.30;66.50
51661;DHT22;37741;49.748;8.490;2023-02-28T11:37:18;1.30;66.40
51661;DHT22;37741;49.748;8.490;2023-02-28T11:39:45;1.40;66.30
51661;DHT22;37741;49.748;8.490;2023-02-28T11:42:42;1.40;66.30
51661;DHT22;37741;49.748;8.490;2023-02-28T11:50:20;1.50;66.30
51661;DHT22;37741;49.748;8.490;2023-02-28T11:53:01;1.60;66.30
51661;DHT22;37741;49.748;8.490;2023-02-28T11:55:42;1.60;66.10
51661;DHT22;37741;49.748;8.490;2023-02-28T11:58:44;1.60;66.00
51661;DHT22;37741;49.748;8.490;2023-02-28T12:04:11;1.70;65.80
51661;DHT22;37741;49.748;8.490;2023-02-28T12:12:48;1.80;65.50
51661;DHT22;37741;49.748;8.490;2023-02-28T12:15:24;1.80;65.40
51661;DHT22;37741;49.748;8.490;2023-02-28T12:32:07;2.00;65.10
51661;DHT22;37741;49.748;8.490;2023-02-28T12:34:43;2.10;65.00
51661;DHT22;37741;49.748;8.490;2023-02-28T12:38:01;2.10;64.80
51661;DHT22;37741;49.748;8.490;2023-02-28T12:43:07;2.20;64.40
51661;DHT22;37741;49.748;8.490;2023-02-28T12:48:27;2.30;64.40
51661;DHT22;37741;49.748;8.490;2023-02-28T12:50:54;2.30;64.30
51661;DHT22;37741;49.748;8.490;2023-02-28T12:53:39;2.40;64.30
51661;DHT22;37741;49.748;8.490;2023-02-28T12:58:57;2.40;64.20
51661;DHT22;37741;49.748;8.490;2023-02-28T13:01:49;2.50;64.20
51661;DHT22;37741;49.748;8.490;2023-02-28T13:07:45;2.50;63.80
51661;DHT22;37741;49.748;8.490;2023-02-28T13:10:15;2.60;63.90
51661;DHT22;37741;49.748;8.490;2023-02-28T13:12:50;2.60;63.70
51661;DHT22;37741;49.748;8.490;2023-02-28T13:15:17;2.70;64.10
51661;DHT22;37741;49.748;8.490;2023-02-28T13:17:49;2.70;63.80
51661;DHT22;37741;49.748;8.490;2023-02-28T13:20:24;2.70;63.90
51661;DHT22;37741;49.748;8.490;2023-02-28T13:22:52;2.80;63.70
51661;DHT22;37741;49.748;8.490;2023-02-28T13:28:00;2.80;63.40
51661;DHT22;37741;49.748;8.490;2023-02-28T13:33:29;2.90;63.70
51661;DHT22;37741;49.748;8.490;2023-02-28T13:38:44;3.00;63.40
51661;DHT22;37741;49.748;8.490;2023-02-28T13:44:12;3.00;63.10
51661;DHT22;37741;49.748;8.490;2023-02-28T13:49:29;3.10;63.80
51661;DHT22;37741;49.748;8.490;2023-02-28T13:57:47;3.10;63.00
51661;DHT22;37741;49.748;8.490;2023-02-28T14:05:19;3.20;62.50
51661;DHT22;37741;49.748;8.490;2023-02-28T14:07:54;3.20;62.20
51661;DHT22;37741;49.748;8.490;2023-02-28T14:10:27;3.30;62.40
51661;DHT22;37741;49.748;8.490;2023-02-28T14:20:57;3.40;61.80
51661;DHT22;37741;49.748;8.490;2023-02-28T14:26:17;3.50;61.90
51661;DHT22;37741;49.748;8.490;2023-02-28T14:32:02;3.60;61.40
51661;DHT22;37741;49.748;8.490;2023-02-28T14:34:53;3.60;61.10
51661;DHT22;37741;49.748;8.490;2023-02-28T14:37:26;3.70;61.10
51661;DHT22;37741;49.748;8.490;2023-02-28T14:39:53;3.70;60.80
51661;DHT22;37741;49.748;8.490;2023-02-28T14:42:36;3.70;60.70
51661;DHT22;37741;49.748;8.490;2023-02-28T14:45:04;3.70;60.80
51661;DHT22;37741;49.748;8.490;2023-02-28T14:47:33;3.80;60.80
51661;DHT22;37741;49.748;8.490;2023-02-28T14:50:01;3.80;60.80
51661;DHT22;37741;49.748;8.490;2023-02-28T14:52:33;3.90;60.50
51661;DHT22;37741;49.748;8.490;2023-02-28T14:55:06;3.90;60.30
51661;DHT22;37741;49.748;8.490;2023-02-28T14:57:42;3.90;60.10
51661;DHT22;37741;49.748;8.490;2023-02-28T15:00:27;3.90;59.90
51661;DHT22;37741;49.748;8.490;2023-02-28T15:02:55;3.90;59.70
51661;DHT22;37741;49.748;8.490;2023-02-28T15:05:34;4.00;59.80
51661;DHT22;37741;49.748;8.490;2023-02-28T15:10:27;4.00;59.60
51661;DHT22;37741;49.748;8.490;2023-02-28T15:15:43;4.10;59.60
51661;DHT22;37741;49.748;8.490;2023-02-28T15:18:33;4.10;59.60
51661;DHT22;37741;49.748;8.490;2023-02-28T15:21:15;4.20;59.60
51661;DHT22;37741;49.748;8.490;2023-02-28T15:23:45;4.20;59.50
51661;DHT22;37741;49.748;8.490;2023-02-28T15:26:16;4.20;59.40
51661;DHT22;37741;49.748;8.490;2023-02-28T15:28:43;4.30;59.30
51661;DHT22;37741;49.748;8.490;2023-02-28T15:31:39;4.30;59.20
51661;DHT22;37741;49.748;8.490;2023-02-28T15:34:06;4.30;59.20
51661;DHT22;37741;49.748;8.490;2023-02-28T15:36:40;4.30;59.10
51661;DHT22;37741;49.748;8.490;2023-02-28T15:39:27;4.30;58.80
51661;DHT22;37741;49.748;8.490;2023-02-28T15:42:11;4.40;58.70
51661;DHT22;37741;49.748;8.490;2023-02-28T15:44:37;4.40;58.70
51661;DHT22;37741;49.748;8.490;2023-02-28T15:47:05;4.40;58.70
51661;DHT22;37741;49.748;8.490;2023-02-28T15:49:59;4.50;58.40
51661;DHT22;37741;49.748;8.490;2023-02-28T15:52:41;4.40;58.30
51661;DHT22;37741;49.748;8.490;2023-02-28T15:55:19;4.40;58.10
51661;DHT22;37741;49.748;8.490;2023-02-28T15:57:48;4.50;58.10
51661;DHT22;37741;49.748;8.490;2023-02-28T16:00:20;4.50;58.00
51661;DHT22;37741;49.748;8.490;2023-02-28T16:02:46;4.50;58.00
51661;DHT22;37741;49.748;8.490;2023-02-28T16:07:41;4.50;58.10
51661;DHT22;37741;49.748;8.490;2023-02-28T16:10:10;4.50;58.20
51661;DHT22;37741;49.748;8.490;2023-02-28T16:12:38;4.60;58.10
51661;DHT22;37741;49.748;8.490;2023-02-28T16:15:27;4.50;58.00
51661;DHT22;37741;49.748;8.490;2023-02-28T16:17:54;4.60;58.00
51661;DHT22;37741;49.748;8.490;2023-02-28T16:20:30;4.60;58.00
51661;DHT22;37741;49.748;8.490;2023-02-28T16:22:56;4.60;58.10
51661;DHT22;37741;49.748;8.490;2023-02-28T16:25:34;4.60;58.10
51661;DHT22;37741;49.748;8.490;2023-02-28T16:28:00;4.60;58.10
51661;DHT22;37741;49.748;8.490;2023-02-28T16:30:28;4.60;58.10
51661;DHT22;37741;49.748;8.490;2023-02-28T16:32:57;4.60;58.10
51661;DHT22;37741;49.748;8.490;2023-02-28T16:35:22;4.60;58.00
51661;DHT22;37741;49.748;8.490;2023-02-28T16:37:50;4.60;58.00
51661;DHT22;37741;49.748;8.490;2023-02-28T16:40:18;4.60;58.10
51661;DHT22;37741;49.748;8.490;2023-02-28T16:42:47;4.60;58.70
51661;DHT22;37741;49.748;8.490;2023-02-28T16:45:25;4.60;58.30
51661;DHT22;37741;49.748;8.490;2023-02-28T16:47:51;4.60;57.70
51661;DHT22;37741;49.748;8.490;2023-02-28T16:50:20;4.60;57.80
51661;DHT22;37741;49.748;8.490;2023-02-28T16:52:46;4.60;57.40
51661;DHT22;37741;49.748;8.490;2023-02-28T16:55:12;4.60;58.00
51661;DHT22;37741;49.748;8.490;2023-02-28T16:57:38;4.60;57.60
51661;DHT22;37741;49.748;8.490;2023-02-28T17:00:06;4.60;57.90
51661;DHT22;37741;49.748;8.490;2023-02-28T17:02:33;4.60;57.90
51661;DHT22;37741;49.748;8.490;2023-02-28T17:04:59;4.60;57.80
51661;DHT22;37741;49.748;8.490;2023-02-28T17:07:25;4.60;57.80
51661;DHT22;37741;49.748;8.490;2023-02-28T17:09:51;4.60;58.40
51661;DHT22;37741;49.748;8.490;2023-02-28T17:12:17;4.60;58.00
51661;DHT22;37741;49.748;8.490;2023-02-28T17:14:42;4.60;57.50
51661;DHT22;37741;49.748;8.490;2023-02-28T17:17:15;4.60;58.00
51661;DHT22;37741;49.748;8.490;2023-02-28T17:19:42;4.60;58.10
51661;DHT22;37741;49.748;8.490;2023-02-28T17:22:09;4.60;58.10
51661;DHT22;37741;49.748;8.490;2023-02-28T17:24:35;4.60;58.20
51661;DHT22;37741;49.748;8.490;2023-02-28T17:27:01;4.50;58.20
51661;DHT22;37741;49.748;8.490;2023-02-28T17:29:27;4.50;58.20
51661;DHT22;37741;49.748;8.490;2023-02-28T17:31:53;4.50;58.10
51661;DHT22;37741;49.748;8.490;2023-02-28T17:34:19;4.50;58.20
51661;DHT22;37741;49.748;8.490;2023-02-28T17:36:46;4.50;58.20
51661;DHT22;37741;49.748;8.490;2023-02-28T17:39:13;4.50;58.20
51661;DHT22;37741;49.748;8.490;2023-02-28T17:41:42;4.50;58.40
51661;DHT22;37741;49.748;8.490;2023-02-28T17:44:08;4.50;58.50
51661;DHT22;37741;49.748;8.490;2023-02-28T17:46:35;4.40;58.60
51661;DHT22;37741;49.748;8.490;2023-02-28T17:49:01;4.40;58.60
51661;DHT22;37741;49.748;8.490;2023-02-28T17:51:27;4.40;58.60
51661;DHT22;37741;49.748;8.490;2023-02-28T17:53:52;4.40;58.70
51661;DHT22;37741;49.748;8.490;2023-02-28T17:56:21;4.40;58.70
51661;DHT22;37741;49.748;8.490;2023-02-28T17:58:48;4.40;58.70
51661;DHT22;37741;49.748;8.490;2023-02-28T18:01:14;4.40;58.70
51661;DHT22;37741;49.748;8.490;2023-02-28T18:03:41;4.30;58.60
51661;DHT22;37741;49.748;8.490;2023-02-28T18:06:19;4.30;58.70
51661;DHT22;37741;49.748;8.490;2023-02-28T18:08:45;4.30;58.70
51661;DHT22;37741;49.748;8.490;2023-02-28T18:11:10;4.30;58.70